Time;durP1;ratioP1;P1;durP2;ratioP2;P2;SDS_P1;SDS_P2;PMS_P1;PMS_P2;Temp;Humidity;BMP_temperature;BMP_pressure;BME280_temperature;BME280_humidity;BME280_pressure;Samples;Min_cycle;Max_cycle;Signal;HPM_P1;HPM_P2
2021/10/26 00:01:19;;;;;;;44.97;21.07;;;0.80;99.90;;;;;;4189021;28;20249;-63
2021/10/26 00:03:20;;;;;;;50.67;21.30;;;0.80;99.90;;;;;;4192067;28;20362;-63
2021/10/26 00:05:21;;;;;;;42.00;20.10;;;0.70;99.90;;;;;;4206014;28;20331;-63
2021/10/26 00:07:23;;;;;;;42.97;21.50;;;0.70;99.90;;;;;;4205749;28;20252;-63
2021/10/26 00:09:24;;;;;;;49.10;21.57;;;0.70;99.90;;;;;;4192125;28;20285;-63
2021/10/26 00:11:26;;;;;;;51.87;21.80;;;0.80;99.90;;;;;;4188797;28;20278;-64
2021/10/26 00:13:27;;;;;;;51.83;21.33;;;0.70;99.90;;;;;;4188580;28;20285;-62
2021/10/26 00:15:28;;;;;;;49.13;20.77;;;0.80;99.90;;;;;;4189359;28;20669;-63
2021/10/26 00:17:30;;;;;;;43.77;20.57;;;0.80;99.90;;;;;;4188826;28;20331;-62
2021/10/26 00:19:32;;;;;;;51.93;22.93;;;0.80;99.90;;;;;;4188730;28;20315;-63
2021/10/26 00:21:34;;;;;;;51.23;22.27;;;0.80;99.90;;;;;;4189504;28;20335;-63
2021/10/26 00:23:36;;;;;;;51.43;23.80;;;0.70;99.90;;;;;;4188935;28;20259;-62
2021/10/26 00:25:39;;;;;;;46.47;21.00;;;0.70;99.90;;;;;;4188761;28;20257;-62
2021/10/26 00:27:41;;;;;;;46.33;21.40;;;0.60;99.90;;;;;;4188844;28;20280;-62
2021/10/26 00:29:42;;;;;;;39.47;20.27;;;0.60;99.90;;;;;;4188584;28;20377;-60
2021/10/26 00:31:44;;;;;;;49.03;20.07;;;0.60;99.90;;;;;;4188779;28;20289;-63
2021/10/26 00:33:45;;;;;;;41.73;19.50;;;0.60;99.90;;;;;;4187686;28;20622;-62
2021/10/26 00:35:46;;;;;;;46.83;20.00;;;0.60;99.90;;;;;;4188770;28;20277;-64
2021/10/26 00:37:47;;;;;;;49.73;21.63;;;0.60;99.90;;;;;;4188026;28;20281;-62
2021/10/26 00:39:49;;;;;;;44.20;19.77;;;0.60;99.90;;;;;;4188817;28;20663;-66
2021/10/26 00:41:51;;;;;;;46.90;20.43;;;0.60;99.90;;;;;;4187917;28;20285;-64
2021/10/26 00:43:53;;;;;;;45.70;20.77;;;0.50;99.90;;;;;;4188578;28;20642;-64
2021/10/26 00:45:55;;;;;;;48.37;22.97;;;0.50;99.90;;;;;;4188444;28;20266;-65
2021/10/26 00:47:56;;;;;;;51.53;23.03;;;0.60;99.90;;;;;;4187292;28;20273;-63
2021/10/26 00:49:57;;;;;;;46.17;21.80;;;0.60;99.90;;;;;;4188635;28;21025;-64
2021/10/26 00:51:59;;;;;;;40.83;20.57;;;0.50;99.90;;;;;;4188872;28;20293;-63
2021/10/26 00:54:00;;;;;;;51.03;23.50;;;0.50;99.90;;;;;;4188443;28;20269;-63
2021/10/26 00:56:01;;;;;;;49.07;22.57;;;0.60;99.90;;;;;;4188831;28;20265;-63
2021/10/26 00:58:02;;;;;;;48.93;20.93;;;0.60;99.90;;;;;;4187933;28;20273;-62
2021/10/26 01:00:06;;;;;;;54.43;22.17;;;0.60;99.90;;;;;;4188541;28;20277;-64
2021/10/26 01:02:07;;;;;;;49.03;21.13;;;0.60;99.90;;;;;;4188494;28;20672;-64
2021/10/26 01:04:09;;;;;;;47.20;20.90;;;0.60;99.90;;;;;;4188776;28;20281;-64
2021/10/26 01:06:10;;;;;;;55.10;22.47;;;0.50;99.90;;;;;;4188607;28;20323;-64
2021/10/26 01:08:12;;;;;;;48.57;20.60;;;0.40;99.90;;;;;;4188339;28;20343;-64
2021/10/26 01:10:13;;;;;;;42.40;19.37;;;0.40;99.90;;;;;;4188237;28;20286;-64
2021/10/26 01:12:16;;;;;;;45.60;19.17;;;0.30;99.90;;;;;;4188814;28;20708;-65
2021/10/26 01:14:17;;;;;;;49.33;21.00;;;0.20;99.90;;;;;;4188634;28;20311;-64
2021/10/26 01:16:18;;;;;;;45.50;20.17;;;0.20;99.90;;;;;;4188494;28;20269;-66
2021/10/26 01:18:19;;;;;;;45.80;20.63;;;0.20;99.90;;;;;;4187986;28;20789;-63
2021/10/26 01:20:20;;;;;;;40.73;19.80;;;0.30;99.90;;;;;;4188044;28;20270;-64
2021/10/26 01:22:24;;;;;;;40.83;20.20;;;0.20;99.90;;;;;;4188265;28;20289;-63
2021/10/26 01:24:25;;;;;;;38.67;18.47;;;0.30;99.90;;;;;;4188137;28;20274;-63
2021/10/26 01:26:27;;;;;;;42.93;19.53;;;0.30;99.90;;;;;;4188277;28;20273;-62
2021/10/26 01:28:28;;;;;;;38.50;17.43;;;0.30;99.90;;;;;;4188435;28;20289;-64
2021/10/26 01:30:33;;;;;;;39.57;17.57;;;0.30;99.90;;;;;;4188367;28;20270;-62
2021/10/26 01:32:35;;;;;;;37.20;17.17;;;0.20;99.90;;;;;;4188478;28;20830;-64
2021/10/26 01:34:36;;;;;;;36.47;19.03;;;0.20;99.90;;;;;;4188116;28;20273;-64
2021/10/26 01:36:37;;;;;;;38.20;18.03;;;0.20;99.90;;;;;;4188503;28;20291;-63
2021/10/26 01:38:38;;;;;;;39.37;18.57;;;0.10;99.90;;;;;;4187848;28;20277;-63
2021/10/26 01:40:40;;;;;;;35.47;18.10;;;0.00;99.90;;;;;;4188234;28;20283;-63
2021/10/26 01:42:41;;;;;;;40.53;18.53;;;0.00;99.90;;;;;;4188550;28;20745;-63
2021/10/26 01:44:42;;;;;;;40.30;17.83;;;0.00;99.90;;;;;;4188041;28;20672;-64
2021/10/26 01:46:43;;;;;;;41.87;19.70;;;0.00;99.90;;;;;;4191751;28;20262;-65
2021/10/26 01:48:44;;;;;;;40.20;17.80;;;0.00;99.90;;;;;;4191393;28;20319;-64
2021/10/26 01:50:46;;;;;;;40.30;18.10;;;-0.10;99.90;;;;;;4191760;28;20323;-64
2021/10/26 01:52:47;;;;;;;46.07;18.70;;;-0.10;99.90;;;;;;4191022;28;20293;-63
2021/10/26 01:54:48;;;;;;;44.10;19.00;;;-0.10;99.90;;;;;;4189385;28;20277;-62
2021/10/26 01:56:50;;;;;;;38.67;17.83;;;-0.10;99.90;;;;;;4190386;28;20695;-64
2021/10/26 01:58:51;;;;;;;42.73;18.87;;;0.00;99.90;;;;;;4191061;28;20323;-65
2021/10/26 02:00:52;;;;;;;42.03;19.03;;;-0.10;99.90;;;;;;4190722;28;20261;-62
2021/10/26 02:02:53;;;;;;;38.87;17.50;;;-0.10;99.90;;;;;;4191447;28;20687;-63
2021/10/26 02:04:55;;;;;;;43.53;19.67;;;-0.10;99.90;;;;;;4191521;28;20311;-63
2021/10/26 02:06:56;;;;;;;45.13;20.63;;;-0.10;99.90;;;;;;4189264;28;20258;-63
2021/10/26 02:08:59;;;;;;;45.80;19.17;;;0.00;99.90;;;;;;4190548;28;20765;-64
2021/10/26 02:11:00;;;;;;;48.07;20.43;;;0.00;99.90;;;;;;4190723;28;20299;-64
2021/10/26 02:13:01;;;;;;;44.47;18.83;;;0.00;99.90;;;;;;4190724;28;20281;-63
2021/10/26 02:15:03;;;;;;;51.33;19.87;;;0.00;99.90;;;;;;4189207;28;20266;-63
2021/10/26 02:17:05;;;;;;;47.70;18.97;;;0.00;99.90;;;;;;4190558;28;20273;-62
2021/10/26 02:19:06;;;;;;;41.27;18.93;;;0.00;99.90;;;;;;4190609;28;20339;-63
2021/10/26 02:21:07;;;;;;;47.17;19.13;;;0.10;99.90;;;;;;4190381;28;20755;-62
2021/10/26 02:23:09;;;;;;;39.33;17.77;;;0.10;99.90;;;;;;4190404;28;20277;-62
2021/10/26 02:25:10;;;;;;;40.47;18.70;;;0.10;99.90;;;;;;4191023;28;20270;-64
2021/10/26 02:27:12;;;;;;;38.30;18.17;;;0.10;99.90;;;;;;4189917;28;20435;-62
2021/10/26 02:29:13;;;;;;;37.57;18.23;;;0.10;99.90;;;;;;4189944;28;20293;-64
2021/10/26 02:31:14;;;;;;;36.83;18.23;;;0.10;99.90;;;;;;4190270;28;20278;-62
2021/10/26 02:33:15;;;;;;;39.20;18.40;;;0.10;99.90;;;;;;4190745;28;20285;-63
2021/10/26 02:35:17;;;;;;;41.43;19.33;;;0.10;99.90;;;;;;4190277;28;20273;-64
2021/10/26 02:37:18;;;;;;;46.20;18.63;;;0.10;99.90;;;;;;4190199;28;20339;-64
2021/10/26 02:39:19;;;;;;;42.10;19.67;;;0.10;99.90;;;;;;4190500;28;20323;-64
2021/10/26 02:41:20;;;;;;;41.27;19.37;;;0.00;99.90;;;;;;4190404;28;20273;-64
2021/10/26 02:43:22;;;;;;;39.63;18.13;;;-0.10;99.90;;;;;;4189986;28;20273;-63
2021/10/26 02:45:29;;;;;;;41.07;18.37;;;-0.10;99.90;;;;;;4190182;28;20257;-64
2021/10/26 02:47:31;;;;;;;39.73;18.90;;;-0.20;99.90;;;;;;4189944;28;20339;-62
2021/10/26 02:49:32;;;;;;;48.03;19.13;;;-0.20;99.90;;;;;;4189377;28;20311;-64
2021/10/26 02:51:33;;;;;;;37.80;17.23;;;-0.20;99.90;;;;;;4190008;28;20342;-63
2021/10/26 02:53:34;;;;;;;45.40;18.70;;;-0.30;99.90;;;;;;4189487;28;20305;-63
2021/10/26 02:55:36;;;;;;;38.73;18.87;;;-0.30;99.90;;;;;;4190630;28;20265;-64
2021/10/26 02:57:37;;;;;;;36.30;17.53;;;-0.30;99.90;;;;;;4188168;28;20798;-62
2021/10/26 02:59:38;;;;;;;38.33;17.77;;;-0.40;99.90;;;;;;4189796;28;20348;-63
2021/10/26 03:01:39;;;;;;;38.57;17.50;;;-0.40;99.90;;;;;;4188864;28;20315;-62
2021/10/26 03:03:40;;;;;;;37.77;15.73;;;-0.40;99.90;;;;;;4189945;28;20277;-63
2021/10/26 03:05:41;;;;;;;32.37;15.80;;;-0.40;99.90;;;;;;4189539;28;20723;-62
2021/10/26 03:07:44;;;;;;;35.23;16.93;;;-0.40;99.90;;;;;;4189775;28;20311;-64
2021/10/26 03:09:46;;;;;;;32.20;15.53;;;-0.30;99.90;;;;;;4190168;28;20262;-63
2021/10/26 03:11:47;;;;;;;33.20;15.30;;;-0.30;99.90;;;;;;4189860;28;20756;-64
2021/10/26 03:13:49;;;;;;;37.67;16.03;;;-0.30;99.90;;;;;;4188157;28;20293;-64
2021/10/26 03:15:50;;;;;;;30.87;14.77;;;-0.30;99.90;;;;;;4189015;28;20265;-64
2021/10/26 03:17:51;;;;;;;32.67;15.17;;;-0.30;99.90;;;;;;4188684;28;20257;-64
2021/10/26 03:19:52;;;;;;;30.77;15.27;;;-0.30;99.90;;;;;;4189329;28;20253;-65
2021/10/26 03:21:53;;;;;;;28.63;15.13;;;-0.20;99.90;;;;;;4189806;28;20755;-63
2021/10/26 03:23:55;;;;;;;27.77;13.80;;;-0.20;99.90;;;;;;4188896;28;20269;-63
2021/10/26 03:25:56;;;;;;;29.23;13.17;;;-0.20;99.90;;;;;;4189539;28;20698;-63
2021/10/26 03:27:57;;;;;;;30.00;13.77;;;-0.20;99.90;;;;;;4188847;28;20273;-63
2021/10/26 03:29:58;;;;;;;28.67;12.47;;;-0.20;99.90;;;;;;4189389;28;20422;-62
2021/10/26 03:31:59;;;;;;;29.10;13.87;;;-0.20;99.90;;;;;;4205920;28;20318;-63
2021/10/26 03:34:00;;;;;;;30.43;15.20;;;-0.20;99.90;;;;;;4206652;28;20574;-62
2021/10/26 03:36:04;;;;;;;33.00;15.57;;;-0.30;99.90;;;;;;4206039;28;20240;-63
2021/10/26 03:38:06;;;;;;;29.83;14.73;;;-0.30;99.90;;;;;;4191827;28;20269;-63
2021/10/26 03:40:09;;;;;;;34.87;15.13;;;-0.40;99.90;;;;;;4189275;28;20374;-64
2021/10/26 03:42:10;;;;;;;38.70;15.67;;;-0.50;99.90;;;;;;4188724;28;20266;-64
2021/10/26 03:44:12;;;;;;;35.60;16.80;;;-0.60;99.90;;;;;;4189094;28;20281;-64
2021/10/26 03:46:14;;;;;;;43.67;17.00;;;-0.70;99.90;;;;;;4188916;28;20861;-63
2021/10/26 03:48:15;;;;;;;41.03;17.80;;;-0.70;99.90;;;;;;4188012;28;20311;-63
2021/10/26 03:50:17;;;;;;;35.20;17.33;;;-0.80;99.90;;;;;;4188636;28;20346;-63
2021/10/26 03:52:18;;;;;;;48.53;18.03;;;-0.70;99.90;;;;;;4188887;28;20725;-63
2021/10/26 03:54:19;;;;;;;41.17;16.93;;;-0.70;99.90;;;;;;4188268;28;20680;-62
2021/10/26 03:56:20;;;;;;;36.27;16.47;;;-0.70;99.90;;;;;;4189045;28;20253;-62
2021/10/26 03:58:22;;;;;;;43.90;18.73;;;-0.80;99.90;;;;;;4188645;28;20747;-63
2021/10/26 04:00:23;;;;;;;33.73;16.47;;;-0.80;99.90;;;;;;4187598;28;20652;-62
2021/10/26 04:02:28;;;;;;;45.20;18.40;;;-0.90;99.90;;;;;;4188915;28;20265;-65
2021/10/26 04:04:29;;;;;;;46.73;17.93;;;-0.90;99.90;;;;;;4187982;28;20334;-63
2021/10/26 04:06:32;;;;;;;38.30;17.20;;;-0.90;99.90;;;;;;4188324;28;20274;-63
2021/10/26 04:10:46;;;;;;;39.43;17.97;;;-0.90;99.90;;;;;;4189101;28;20269;-63
2021/10/26 04:12:47;;;;;;;35.23;16.80;;;-0.90;99.90;;;;;;4188270;28;20362;-62
2021/10/26 04:14:48;;;;;;;39.67;17.03;;;-0.90;99.90;;;;;;4188843;28;20758;-62
2021/10/26 04:16:50;;;;;;;42.07;18.10;;;-0.90;99.90;;;;;;4188550;28;20289;-60
2021/10/26 04:18:51;;;;;;;38.90;17.23;;;-1.00;99.90;;;;;;4188655;28;20311;-62
2021/10/26 04:20:53;;;;;;;38.63;16.43;;;-1.10;99.90;;;;;;4188568;28;20269;-62
2021/10/26 04:22:54;;;;;;;40.17;17.53;;;-1.10;99.90;;;;;;4188808;28;20266;-63
2021/10/26 04:24:55;;;;;;;35.17;18.47;;;-1.10;99.90;;;;;;4185651;28;20343;-60
2021/10/26 04:26:56;;;;;;;39.10;16.70;;;-1.10;99.90;;;;;;4184221;28;20402;-63
2021/10/26 04:28:57;;;;;;;41.27;18.90;;;-1.20;99.90;;;;;;4184619;28;20285;-62
2021/10/26 04:31:02;;;;;;;42.80;18.00;;;-1.20;99.90;;;;;;4186288;28;20667;-66
2021/10/26 04:33:06;;;;;;;47.73;18.40;;;-1.10;99.90;;;;;;4186218;28;20407;-64
2021/10/26 04:35:08;;;;;;;40.87;18.37;;;-1.10;99.90;;;;;;4183855;28;20339;-64
2021/10/26 04:37:09;;;;;;;38.70;18.43;;;-1.10;99.90;;;;;;4184130;28;20273;-66
2021/10/26 04:39:10;;;;;;;45.13;19.53;;;-1.10;99.90;;;;;;4183946;28;20358;-62
2021/10/26 04:41:12;;;;;;;42.73;20.10;;;-1.10;99.90;;;;;;4183877;28;20285;-66
2021/10/26 04:43:14;;;;;;;41.90;18.40;;;-1.10;99.90;;;;;;4182869;28;20273;-64
2021/10/26 04:45:15;;;;;;;47.57;19.70;;;-1.10;99.90;;;;;;4182808;28;20358;-62
2021/10/26 04:47:21;;;;;;;46.40;18.93;;;-1.10;99.90;;;;;;4183189;28;20285;-64
2021/10/26 04:49:22;;;;;;;49.67;20.20;;;-1.10;99.90;;;;;;4182713;28;20273;-63
2021/10/26 04:51:23;;;;;;;47.50;20.87;;;-1.00;99.90;;;;;;4184044;28;20273;-63
2021/10/26 04:53:25;;;;;;;44.87;20.10;;;-1.00;99.90;;;;;;4183177;28;20315;-62
2021/10/26 04:55:26;;;;;;;46.93;21.60;;;-1.10;99.90;;;;;;4184205;28;20277;-63
2021/10/26 04:57:27;;;;;;;37.87;18.67;;;-1.00;99.90;;;;;;4183182;28;20295;-63
2021/10/26 04:59:28;;;;;;;46.20;20.40;;;-1.10;99.90;;;;;;4175402;28;20289;-63
2021/10/26 05:01:30;;;;;;;47.67;20.43;;;-1.10;99.90;;;;;;4182556;28;20825;-62
2021/10/26 05:03:33;;;;;;;46.27;20.07;;;-1.20;99.90;;;;;;4184619;28;20839;-63
2021/10/26 05:05:34;;;;;;;46.87;19.87;;;-1.30;99.90;;;;;;4187041;28;20303;-62
2021/10/26 05:07:36;;;;;;;45.77;19.03;;;-1.30;99.90;;;;;;4185924;28;20292;-64
2021/10/26 05:09:37;;;;;;;43.93;20.47;;;-1.30;99.90;;;;;;4180126;28;20285;-63
2021/10/26 05:11:38;;;;;;;43.57;19.97;;;-1.20;99.90;;;;;;4185858;28;20351;-63
2021/10/26 05:13:40;;;;;;;46.13;19.63;;;-1.10;99.90;;;;;;4185453;28;20712;-65
2021/10/26 05:15:42;;;;;;;47.37;21.27;;;-1.00;99.90;;;;;;4186726;28;20418;-65
2021/10/26 05:17:43;;;;;;;53.43;22.77;;;-0.90;99.90;;;;;;4186532;28;20814;-62
2021/10/26 05:19:48;;;;;;;57.27;22.83;;;-0.70;99.90;;;;;;4187657;28;20270;-66
2021/10/26 05:21:49;;;;;;;53.77;20.93;;;-0.40;99.90;;;;;;4188784;28;20832;-66
2021/10/26 05:23:50;;;;;;;68.67;25.90;;;-0.20;99.90;;;;;;4190342;28;20261;-62
2021/10/26 05:25:52;;;;;;;59.00;27.63;;;0.10;99.90;;;;;;4189918;28;20734;-67
2021/10/26 05:27:53;;;;;;;62.40;26.20;;;0.30;99.90;;;;;;4190319;28;20692;-63
2021/10/26 05:29:54;;;;;;;69.37;26.83;;;0.60;99.90;;;;;;4191044;28;20276;-65
2021/10/26 05:31:56;;;;;;;56.20;22.43;;;0.80;99.90;;;;;;4190904;28;20274;-64
2021/10/26 05:33:57;;;;;;;50.37;23.17;;;1.10;99.90;;;;;;4190868;28;20309;-64
2021/10/26 05:35:59;;;;;;;48.97;23.67;;;1.40;99.90;;;;;;4190567;28;20277;-64
2021/10/26 05:38:00;;;;;;;51.80;20.70;;;1.70;99.90;;;;;;4190052;28;20327;-66
2021/10/26 05:40:01;;;;;;;42.30;20.87;;;2.00;99.90;;;;;;4189991;28;20323;-63
2021/10/26 05:42:02;;;;;;;43.27;20.30;;;2.40;99.90;;;;;;4190116;28;20383;-64
2021/10/26 05:44:04;;;;;;;46.97;19.83;;;2.70;99.90;;;;;;4190748;28;20249;-65
2021/10/26 05:46:05;;;;;;;46.30;20.40;;;2.90;99.90;;;;;;4190153;28;20273;-66
2021/10/26 05:48:06;;;;;;;51.37;21.30;;;3.10;99.90;;;;;;4190187;28;20327;-65
2021/10/26 05:50:07;;;;;;;47.17;22.50;;;3.30;99.90;;;;;;4190695;28;20748;-65
2021/10/26 05:52:09;;;;;;;45.40;21.63;;;3.60;99.90;;;;;;4190581;28;20269;-64
2021/10/26 05:54:10;;;;;;;42.03;20.67;;;3.80;99.90;;;;;;4190161;28;20587;-66
2021/10/26 05:56:11;;;;;;;50.17;21.83;;;4.10;99.90;;;;;;4190152;28;20321;-67
2021/10/26 05:58:13;;;;;;;48.77;22.27;;;4.50;99.90;;;;;;4190509;28;20261;-65
2021/10/26 06:00:14;;;;;;;52.97;23.00;;;4.80;99.90;;;;;;4190120;28;20097;-65
2021/10/26 06:02:15;;;;;;;45.97;22.30;;;5.20;99.90;;;;;;4190540;28;20052;-65
2021/10/26 06:04:17;;;;;;;50.63;21.97;;;5.50;99.90;;;;;;4190424;28;20743;-67
2021/10/26 06:06:19;;;;;;;50.47;21.67;;;5.60;99.90;;;;;;4190827;28;20128;-66
2021/10/26 06:08:20;;;;;;;55.53;25.07;;;5.90;99.90;;;;;;4190347;28;20089;-65
2021/10/26 06:10:22;;;;;;;46.00;23.33;;;6.20;99.90;;;;;;4189984;28;20044;-65
2021/10/26 06:12:24;;;;;;;49.67;22.27;;;6.40;99.90;;;;;;4190205;28;20024;-66
2021/10/26 06:14:27;;;;;;;54.30;24.17;;;6.50;99.90;;;;;;4190289;28;20466;-65
2021/10/26 06:16:32;;;;;;;49.10;22.67;;;6.30;99.90;;;;;;4190292;28;20025;-64
2021/10/26 06:18:34;;;;;;;46.17;21.20;;;6.20;99.90;;;;;;4190152;28;20632;-65
2021/10/26 06:20:35;;;;;;;51.37;23.50;;;6.20;99.90;;;;;;4190520;28;20033;-64
2021/10/26 06:22:36;;;;;;;50.90;22.93;;;6.10;99.90;;;;;;4190063;28;20032;-64
2021/10/26 06:24:38;;;;;;;54.50;23.20;;;6.40;99.90;;;;;;4189778;28;20046;-64
2021/10/26 06:26:39;;;;;;;45.30;22.23;;;6.80;99.90;;;;;;4190215;28;20481;-64
2021/10/26 06:28:40;;;;;;;53.67;22.13;;;7.10;99.90;;;;;;4189468;28;20103;-64
2021/10/26 06:30:41;;;;;;;54.30;22.17;;;7.30;99.90;;;;;;4190005;28;20090;-65
2021/10/26 06:32:43;;;;;;;44.20;20.20;;;7.40;99.90;;;;;;4189750;28;20037;-65
2021/10/26 06:34:44;;;;;;;49.40;21.00;;;7.70;99.90;;;;;;4189782;28;20117;-64
2021/10/26 06:36:46;;;;;;;62.37;26.07;;;7.80;99.90;;;;;;4190029;28;20427;-65
2021/10/26 06:38:47;;;;;;;52.37;22.80;;;8.00;99.80;;;;;;4189400;28;20090;-65
2021/10/26 06:40:48;;;;;;;47.83;21.47;;;8.50;99.10;;;;;;4189745;28;20082;-66
2021/10/26 06:42:50;;;;;;;50.13;21.00;;;8.50;98.50;;;;;;4189365;28;20028;-64
2021/10/26 06:44:51;;;;;;;49.17;21.93;;;8.30;97.70;;;;;;4189143;28;20036;-65
2021/10/26 06:46:52;;;;;;;57.87;21.80;;;7.90;97.70;;;;;;4189575;28;20054;-64
2021/10/26 06:48:53;;;;;;;48.03;22.90;;;7.90;98.20;;;;;;4189443;28;20420;-66
2021/10/26 06:50:54;;;;;;;55.03;22.23;;;7.70;98.10;;;;;;4189488;28;20025;-63
2021/10/26 06:52:56;;;;;;;43.70;22.07;;;7.60;97.90;;;;;;4187630;28;20037;-66
2021/10/26 06:54:57;;;;;;;57.03;22.57;;;7.60;97.90;;;;;;4189609;28;20110;-64
2021/10/26 06:56:58;;;;;;;52.30;24.03;;;7.60;97.80;;;;;;4189693;28;20133;-65
2021/10/26 06:59:00;;;;;;;48.23;22.37;;;7.60;97.90;;;;;;4189412;28;20093;-63
2021/10/26 07:01:06;;;;;;;45.07;22.93;;;7.90;97.70;;;;;;4189563;28;20040;-65
2021/10/26 07:03:08;;;;;;;42.13;22.40;;;7.90;97.50;;;;;;4189063;28;20048;-65
2021/10/26 07:05:09;;;;;;;53.77;22.10;;;7.90;97.20;;;;;;4189121;28;20094;-65
2021/10/26 07:07:10;;;;;;;47.87;23.60;;;7.90;97.30;;;;;;4189415;28;20419;-65
2021/10/26 07:09:12;;;;;;;52.33;22.70;;;7.90;97.10;;;;;;4189165;28;20024;-64
2021/10/26 07:11:14;;;;;;;48.33;22.47;;;8.00;97.00;;;;;;4188727;28;20044;-65
2021/10/26 07:13:15;;;;;;;49.60;21.80;;;8.00;96.90;;;;;;4188676;28;20049;-64
2021/10/26 07:15:16;;;;;;;51.17;22.70;;;7.80;96.90;;;;;;4189225;28;20147;-65
2021/10/26 07:17:18;;;;;;;47.33;22.33;;;7.80;97.20;;;;;;4188861;28;20028;-63
2021/10/26 07:19:19;;;;;;;56.43;21.37;;;7.80;97.20;;;;;;4189417;28;20029;-63
2021/10/26 07:21:20;;;;;;;46.53;20.27;;;7.70;97.10;;;;;;4189168;28;20049;-66
2021/10/26 07:23:21;;;;;;;48.63;20.80;;;7.70;97.20;;;;;;4189072;28;20124;-64
2021/10/26 07:25:23;;;;;;;45.27;20.03;;;7.70;97.20;;;;;;4189706;28;20036;-65
2021/10/26 07:27:24;;;;;;;46.97;20.03;;;7.60;97.20;;;;;;4188117;28;20048;-65
2021/10/26 07:29:25;;;;;;;51.83;19.43;;;7.50;97.40;;;;;;4188958;28;20070;-66
2021/10/26 07:31:27;;;;;;;44.03;19.10;;;7.50;97.60;;;;;;4188476;28;20062;-69
2021/10/26 07:33:32;;;;;;;42.63;19.93;;;7.80;97.70;;;;;;4189040;28;20087;-66
2021/10/26 07:35:41;;;;;;;38.87;18.20;;;8.20;97.60;;;;;;4188050;28;20086;-66
2021/10/26 07:37:46;;;;;;;38.90;17.23;;;8.30;97.40;;;;;;4188982;28;20024;-66
2021/10/26 07:39:48;;;;;;;40.00;16.63;;;8.30;97.40;;;;;;4189118;28;20490;-65
2021/10/26 07:41:49;;;;;;;38.23;17.37;;;8.10;97.20;;;;;;4189291;28;20073;-65
2021/10/26 07:43:50;;;;;;;36.47;17.50;;;8.10;97.40;;;;;;4187298;28;20098;-64
2021/10/26 07:45:52;;;;;;;36.40;17.73;;;8.40;97.30;;;;;;4188951;28;20502;-68
2021/10/26 07:47:54;;;;;;;35.07;17.00;;;8.60;96.80;;;;;;4188139;28;20094;-63
2021/10/26 07:49:58;;;;;;;41.47;17.60;;;8.50;96.50;;;;;;4189110;28;20040;-65
2021/10/26 07:52:01;;;;;;;32.40;15.37;;;8.20;96.60;;;;;;4188686;28;20526;-66
2021/10/26 07:54:02;;;;;;;39.90;17.43;;;8.10;96.80;;;;;;4188802;28;20037;-66
2021/10/26 07:56:06;;;;;;;37.17;16.73;;;8.10;96.80;;;;;;4188401;28;20082;-67
2021/10/26 07:58:08;;;;;;;43.17;14.43;;;8.10;96.60;;;;;;4188271;28;20036;-64
2021/10/26 08:00:09;;;;;;;36.63;17.03;;;8.00;96.70;;;;;;4188190;28;20040;-63
2021/10/26 08:02:12;;;;;;;28.47;15.90;;;8.20;96.70;;;;;;4186702;28;20041;-64
2021/10/26 08:04:14;;;;;;;35.53;17.93;;;7.90;96.80;;;;;;4187645;28;20052;-64
2021/10/26 08:06:15;;;;;;;40.97;17.37;;;7.80;96.90;;;;;;4187149;28;20102;-63
2021/10/26 08:08:17;;;;;;;35.23;16.53;;;7.80;97.20;;;;;;4187744;28;20082;-63
2021/10/26 08:10:19;;;;;;;32.67;16.53;;;7.90;97.20;;;;;;4187889;28;20460;-66
2021/10/26 08:12:22;;;;;;;29.67;15.97;;;8.00;97.00;;;;;;4187983;28;20040;-63
2021/10/26 08:14:23;;;;;;;29.07;15.63;;;7.80;96.90;;;;;;4187788;28;20922;-63
2021/10/26 08:16:24;;;;;;;25.37;14.50;;;7.80;97.20;;;;;;4188273;28;20133;-64
2021/10/26 08:18:26;;;;;;;31.43;15.90;;;7.80;97.20;;;;;;4187690;28;20526;-64
2021/10/26 08:20:27;;;;;;;42.40;16.70;;;8.20;97.30;;;;;;4188062;28;20024;-64
2021/10/26 08:22:32;;;;;;;34.03;15.73;;;8.50;97.00;;;;;;4188508;28;20089;-64
2021/10/26 08:24:34;;;;;;;32.37;16.10;;;8.20;96.70;;;;;;4187892;28;20045;-64
2021/10/26 08:26:40;;;;;;;28.53;16.13;;;8.00;97.10;;;;;;4188257;28;20028;-64
2021/10/26 08:28:41;;;;;;;34.53;16.73;;;8.00;97.10;;;;;;4185793;28;20041;-64
2021/10/26 08:30:56;;;;;;;28.93;14.87;;;8.30;96.90;;;;;;4186310;28;20045;-64
2021/10/26 08:33:23;;;;;;;32.57;16.40;;;8.60;96.70;;;;;;4188093;28;20036;-65
2021/10/26 08:35:25;;;;;;;33.23;15.87;;;8.90;96.30;;;;;;4187834;28;20110;-64
2021/10/26 08:37:26;;;;;;;35.67;16.80;;;9.10;96.30;;;;;;4187945;28;20383;-64
2021/10/26 08:39:27;;;;;;;31.27;17.60;;;8.70;96.40;;;;;;4187667;28;20029;-63
2021/10/26 08:41:31;;;;;;;30.63;16.77;;;8.40;96.80;;;;;;4187043;28;20099;-65
2021/10/26 08:43:33;;;;;;;34.50;18.77;;;8.20;97.20;;;;;;4186726;28;20040;-65
2021/10/26 08:45:36;;;;;;;34.73;18.67;;;8.20;97.50;;;;;;4187889;28;20373;-65
2021/10/26 08:47:41;;;;;;;33.60;19.07;;;8.30;97.70;;;;;;4187714;28;20102;-65
2021/10/26 08:49:47;;;;;;;35.10;20.40;;;8.20;97.80;;;;;;4187812;28;20051;-64
2021/10/26 08:51:52;;;;;;;42.40;21.17;;;8.00;98.10;;;;;;4187590;28;20017;-63
2021/10/26 08:53:54;;;;;;;37.13;18.43;;;8.00;98.40;;;;;;4187633;28;20554;-64
2021/10/26 08:56:00;;;;;;;36.60;19.90;;;8.20;98.30;;;;;;4189801;28;20032;-64
2021/10/26 08:58:04;;;;;;;35.20;19.50;;;8.30;98.30;;;;;;4191192;28;20024;-64
2021/10/26 09:00:08;;;;;;;35.00;19.20;;;8.20;98.40;;;;;;4190950;28;20134;-65
2021/10/26 09:02:10;;;;;;;33.63;18.00;;;8.10;98.60;;;;;;4190783;28;20032;-65
2021/10/26 09:04:12;;;;;;;41.40;20.13;;;8.00;98.80;;;;;;4190990;28;20070;-65
2021/10/26 09:06:24;;;;;;;38.60;19.03;;;8.00;99.10;;;;;;4190548;28;20036;-64
2021/10/26 09:08:26;;;;;;;35.90;18.80;;;8.20;99.10;;;;;;4190908;28;20037;-65
2021/10/26 09:10:31;;;;;;;36.67;19.40;;;8.10;99.00;;;;;;4190556;28;20040;-65
2021/10/26 09:16:56;;;;;;;32.80;16.63;;;8.20;99.20;;;;;;4190756;28;20542;-65
2021/10/26 09:19:08;;;;;;;28.73;15.83;;;8.50;99.00;;;;;;4190571;28;20024;-65
2021/10/26 09:21:23;;;;;;;31.20;17.30;;;8.70;98.90;;;;;;4190578;28;20796;-64
2021/10/26 09:23:27;;;;;;;27.90;16.00;;;9.00;98.80;;;;;;4190091;28;20044;-63
2021/10/26 09:25:38;;;;;;;32.67;16.00;;;9.20;98.40;;;;;;4190807;28;20025;-63
2021/10/26 09:27:40;;;;;;;33.47;15.00;;;9.30;98.30;;;;;;4189797;28;20075;-64
2021/10/26 09:29:46;;;;;;;24.57;14.27;;;9.40;98.20;;;;;;4190144;28;20098;-63
2021/10/26 09:31:47;;;;;;;30.37;14.97;;;9.40;98.20;;;;;;4189527;28;20032;-63
2021/10/26 09:34:01;;;;;;;28.90;15.07;;;9.50;98.20;;;;;;4190073;28;20106;-64
2021/10/26 09:36:28;;;;;;;30.33;15.93;;;9.50;98.30;;;;;;4190976;28;20480;-65
2021/10/26 09:38:29;;;;;;;27.63;14.77;;;9.60;98.50;;;;;;4190537;28;20086;-64
2021/10/26 09:40:42;;;;;;;23.33;13.60;;;9.70;98.50;;;;;;4188538;28;20789;-65
2021/10/26 09:42:49;;;;;;;25.83;12.63;;;9.90;98.20;;;;;;4190290;28;20028;-65
2021/10/26 09:44:54;;;;;;;19.83;12.27;;;10.00;98.00;;;;;;4190479;28;20086;-64
2021/10/26 09:46:57;;;;;;;19.00;10.77;;;10.00;97.80;;;;;;4190450;28;20769;-64
2021/10/26 09:48:58;;;;;;;21.50;10.53;;;10.20;97.70;;;;;;4190123;28;20086;-66
2021/10/26 09:51:09;;;;;;;21.13;10.97;;;10.30;97.50;;;;;;4190769;28;20085;-65
2021/10/26 09:53:15;;;;;;;23.17;11.87;;;10.30;97.00;;;;;;4190508;28;20500;-66
2021/10/26 09:57:37;;;;;;;21.63;10.03;;;10.40;96.70;;;;;;4191025;28;20033;-65
2021/10/26 09:59:50;;;;;;;31.20;10.40;;;10.50;96.50;;;;;;4189874;28;20082;-63
2021/10/26 10:01:52;;;;;;;19.07;10.23;;;10.50;96.00;;;;;;4189721;28;20049;-64
2021/10/26 10:04:06;;;;;;;17.10;10.13;;;10.60;96.20;;;;;;4189767;28;20049;-64
2021/10/26 10:06:11;;;;;;;19.27;10.17;;;10.60;95.90;;;;;;4189902;28;20054;-65
2021/10/26 10:08:20;;;;;;;18.83;10.37;;;10.70;96.20;;;;;;4190136;28;20106;-65
2021/10/26 10:10:21;;;;;;;18.33;10.97;;;10.70;95.50;;;;;;4190475;28;20024;-64
2021/10/26 10:12:26;;;;;;;20.03;10.43;;;10.70;95.80;;;;;;4189884;28;20485;-64
2021/10/26 10:14:27;;;;;;;21.83;10.17;;;10.70;95.60;;;;;;4188441;28;20041;-63
2021/10/26 10:16:28;;;;;;;16.37;10.03;;;10.80;95.60;;;;;;4190394;28;20435;-64
2021/10/26 10:18:30;;;;;;;18.33;10.00;;;10.80;95.40;;;;;;4188984;28;20048;-64
2021/10/26 10:20:32;;;;;;;21.00;10.90;;;10.90;95.30;;;;;;4189974;28;20357;-64
2021/10/26 10:22:34;;;;;;;20.00;9.87;;;10.90;95.30;;;;;;4190198;28;20059;-63
2021/10/26 10:24:41;;;;;;;21.00;10.10;;;10.90;95.10;;;;;;4188029;28;20038;-65
2021/10/26 10:26:48;;;;;;;18.73;9.13;;;10.90;94.90;;;;;;4189780;28;20086;-65
2021/10/26 10:28:52;;;;;;;18.43;9.73;;;11.00;94.80;;;;;;4187728;28;20150;-64
2021/10/26 10:30:58;;;;;;;15.50;9.13;;;11.00;94.40;;;;;;4189734;28;20776;-64
2021/10/26 10:33:00;;;;;;;16.23;9.73;;;11.00;94.20;;;;;;4190032;28;20059;-66
2021/10/26 10:35:06;;;;;;;19.50;9.57;;;11.10;94.30;;;;;;4190571;28;20102;-66